Station Historical Data
Daily Summary for June 17, 2012 Units:  English    Metric   Both
« Previous Day
Next Day »
Daily Weekly Monthly Yearly Custom
  High: Low: Average:
Temperature: 85.7 °F 66.8 °F 76.5 °F
Dew Point: 67.4 °F 61.6 °F 64.2 °F
Humidity: 87% 47% 68%
Wind Speed: 11.0mph 0.0mph 3.2mph
Wind Gust: 16.0mph - -
Wind- - SSE
Pressure: 30.07 in 29.91 in -
Precipitation: 0.00 in    
Historical Graphs
 
 
Tabular Data for June 17, 2012
Time Temperature Dew Point Pressure Wind Wind Speed Wind Gust Humidity Rainfall Rate (Hourly) Conditions
00:00 72.9 °F 65.3 °F 30.04 in Calm     77% 0.00 in
00:05 72.2 °F 65.3 °F 30.04 in SE 1.0 mph 1.0 mph 79% 0.00 in
00:10 71.6 °F 65.1 °F 30.05 in SE 1.0 mph 2.0 mph 80% 0.00 in
00:16 71.0 °F 65.2 °F 30.05 in NNW 1.0 mph 1.0 mph 82% 0.00 in
00:21 70.7 °F 64.9 °F 30.05 in Calm   1.0 mph 82% 0.00 in
00:26 70.5 °F 65.1 °F 30.05 in Calm     83% 0.00 in
00:31 70.4 °F 65.0 °F 30.05 in NNW 1.0 mph 1.0 mph 83% 0.00 in
00:36 70.5 °F 65.1 °F 30.05 in Calm   1.0 mph 83% 0.00 in
00:41 70.5 °F 65.1 °F 30.05 in Calm   1.0 mph 83% 0.00 in
00:46 70.3 °F 64.9 °F 30.05 in Calm   1.0 mph 83% 0.00 in
00:51 70.1 °F 64.7 °F 30.05 in Calm     83% 0.00 in
00:56 70.0 °F 64.9 °F 30.05 in Calm     84% 0.00 in
01:01 69.8 °F 64.8 °F 30.05 in Calm     84% 0.00 in
01:06 69.7 °F 64.7 °F 30.05 in Calm   1.0 mph 84% 0.00 in
01:11 69.6 °F 64.6 °F 30.05 in South 1.0 mph 1.0 mph 84% 0.00 in
01:16 69.6 °F 64.6 °F 30.05 in Calm   1.0 mph 84% 0.00 in
01:21 69.5 °F 64.8 °F 30.05 in South 1.0 mph 1.0 mph 85% 0.00 in
01:26 69.4 °F 64.7 °F 30.05 in SE 2.0 mph 2.0 mph 85% 0.00 in
01:31 69.6 °F 64.6 °F 30.04 in SSE 3.0 mph 4.0 mph 84% 0.00 in
01:36 70.2 °F 64.8 °F 30.05 in SE 3.0 mph 3.0 mph 83% 0.00 in
01:41 70.6 °F 64.8 °F 30.05 in SSE 2.0 mph 3.0 mph 82% 0.00 in
01:46 70.9 °F 65.1 °F 30.05 in SE 2.0 mph 2.0 mph 82% 0.00 in
01:51 70.9 °F 65.1 °F 30.05 in SSE 1.0 mph 2.0 mph 82% 0.00 in
01:56 70.9 °F 65.1 °F 30.04 in SE 2.0 mph 3.0 mph 82% 0.00 in
02:01 70.9 °F 65.1 °F 30.04 in SE 4.0 mph 4.0 mph 82% 0.00 in
02:06 71.1 °F 65.3 °F 30.04 in SE 5.0 mph 6.0 mph 82% 0.00 in
02:11 71.6 °F 65.5 °F 30.03 in SE 6.0 mph 7.0 mph 81% 0.00 in
02:16 71.8 °F 65.7 °F 30.03 in SSE 5.0 mph 7.0 mph 81% 0.00 in
02:21 72.0 °F 65.5 °F 30.03 in SE 5.0 mph 9.0 mph 80% 0.00 in
02:26 71.9 °F 65.4 °F 30.03 in SE 4.0 mph 7.0 mph 80% 0.00 in
02:31 71.9 °F 65.4 °F 30.03 in SSE 3.0 mph 6.0 mph 80% 0.00 in
02:36 71.5 °F 65.4 °F 30.03 in SE 5.0 mph 5.0 mph 81% 0.00 in
02:41 71.5 °F 65.4 °F 30.03 in SE 6.0 mph 6.0 mph 81% 0.00 in
02:46 71.7 °F 65.2 °F 30.03 in SE 4.0 mph 6.0 mph 80% 0.00 in
02:51 71.6 °F 65.1 °F 30.03 in SE 3.0 mph 4.0 mph 80% 0.00 in
02:56 71.5 °F 65.4 °F 30.03 in SE 2.0 mph 5.0 mph 81% 0.00 in
03:01 71.3 °F 65.2 °F 30.03 in SE 4.0 mph 4.0 mph 81% 0.00 in
03:06 71.1 °F 65.0 °F 30.04 in SE 2.0 mph 3.0 mph 81% 0.00 in
03:11 70.9 °F 65.1 °F 30.03 in SE 3.0 mph 4.0 mph 82% 0.00 in
03:16 70.7 °F 64.9 °F 30.04 in SE 1.0 mph 3.0 mph 82% 0.00 in
03:21 70.5 °F 65.1 °F 30.04 in Calm   1.0 mph 83% 0.00 in
03:26 70.2 °F 64.8 °F 30.03 in SE 1.0 mph 2.0 mph 83% 0.00 in
03:31 69.9 °F 64.8 °F 30.03 in SE 1.0 mph 3.0 mph 84% 0.00 in
03:36 69.7 °F 64.7 °F 30.03 in SSE 2.0 mph 2.0 mph 84% 0.00 in
03:41 69.5 °F 64.8 °F 30.04 in Calm   2.0 mph 85% 0.00 in
03:46 69.3 °F 64.6 °F 30.04 in SE 1.0 mph 1.0 mph 85% 0.00 in
03:51 69.2 °F 64.5 °F 30.03 in Calm   1.0 mph 85% 0.00 in
03:56 69.0 °F 64.6 °F 30.03 in SSE 1.0 mph 1.0 mph 86% 0.00 in
04:01 68.9 °F 64.6 °F 30.03 in SE 1.0 mph 2.0 mph 86% 0.00 in
04:06 68.8 °F 64.4 °F 30.03 in SSE 1.0 mph 2.0 mph 86% 0.00 in
04:11 68.8 °F 64.4 °F 30.03 in Calm   2.0 mph 86% 0.00 in
04:16 68.7 °F 64.3 °F 30.03 in SSE 1.0 mph 1.0 mph 86% 0.00 in
04:21 68.6 °F 64.2 °F 30.03 in SSE 1.0 mph 1.0 mph 86% 0.00 in
04:29 68.3 °F 64.3 °F 30.03 in SSE 1.0 mph 1.0 mph 87% 0.00 in
04:34 68.3 °F 64.3 °F 30.03 in Calm   1.0 mph 87% 0.00 in
04:39 68.2 °F 64.2 °F 30.03 in Calm     87% 0.00 in
04:44 68.0 °F 64.0 °F 30.03 in Calm   1.0 mph 87% 0.00 in
04:49 68.0 °F 64.0 °F 30.03 in SE 1.0 mph 1.0 mph 87% 0.00 in
04:55 68.0 °F 64.0 °F 30.03 in SE 1.0 mph 2.0 mph 87% 0.00 in
05:00 67.7 °F 63.7 °F 30.03 in SE 3.0 mph 3.0 mph 87% 0.00 in
05:05 67.8 °F 63.8 °F 30.03 in SSE 3.0 mph 5.0 mph 87% 0.00 in
05:10 67.8 °F 63.8 °F 30.03 in SSE 2.0 mph 3.0 mph 87% 0.00 in
05:15 67.8 °F 63.8 °F 30.03 in SSE 3.0 mph 4.0 mph 87% 0.00 in
05:20 67.8 °F 63.8 °F 30.03 in SSE 2.0 mph 3.0 mph 87% 0.00 in
05:25 67.9 °F 63.9 °F 30.04 in Calm   1.0 mph 87% 0.00 in
05:30 67.7 °F 63.7 °F 30.04 in Calm     87% 0.00 in
05:35 67.6 °F 63.6 °F 30.04 in SSW 1.0 mph 1.0 mph 87% 0.00 in
05:40 67.5 °F 63.5 °F 30.05 in SSE 1.0 mph 1.0 mph 87% 0.00 in
05:45 67.3 °F 63.3 °F 30.05 in SE 1.0 mph 1.0 mph 87% 0.00 in
05:50 67.1 °F 63.1 °F 30.05 in SE 1.0 mph 1.0 mph 87% 0.00 in
05:55 67.3 °F 63.3 °F 30.04 in SE 3.0 mph 3.0 mph 87% 0.00 in
06:00 67.6 °F 63.6 °F 30.05 in SE 2.0 mph 4.0 mph 87% 0.00 in
06:05 67.6 °F 63.3 °F 30.05 in SE 1.0 mph 2.0 mph 86% 0.00 in
06:10 67.5 °F 63.2 °F 30.05 in Calm   1.0 mph 86% 0.00 in
06:15 67.3 °F 63.0 °F 30.05 in Calm   1.0 mph 86% 0.00 in
06:20 67.1 °F 63.1 °F 30.06 in Calm   1.0 mph 87% 0.00 in
06:25 66.9 °F 62.9 °F 30.06 in SSE 1.0 mph 1.0 mph 87% 0.00 in
06:30 66.8 °F 62.8 °F 30.06 in SSE 1.0 mph 2.0 mph 87% 0.00 in
06:35 66.8 °F 62.8 °F 30.06 in SSE 1.0 mph 2.0 mph 87% 0.00 in
06:40 66.9 °F 62.9 °F 30.06 in SE 1.0 mph 2.0 mph 87% 0.00 in
06:45 66.8 °F 62.5 °F 30.06 in SSE 1.0 mph 2.0 mph 86% 0.00 in
06:50 66.9 °F 62.6 °F 30.06 in SSE 1.0 mph 2.0 mph 86% 0.00 in
06:55 66.9 °F 62.6 °F 30.06 in SE 2.0 mph 3.0 mph 86% 0.00 in
07:00 67.0 °F 62.7 °F 30.06 in SSE 1.0 mph 3.0 mph 86% 0.00 in
07:05 67.2 °F 62.9 °F 30.06 in SSE 1.0 mph 2.0 mph 86% 0.00 in
07:10 67.3 °F 63.0 °F 30.06 in South 2.0 mph 3.0 mph 86% 0.00 in
07:15 67.4 °F 63.1 °F 30.06 in SSE 4.0 mph 4.0 mph 86% 0.00 in
07:20 67.7 °F 63.4 °F 30.06 in SSE 3.0 mph 5.0 mph 86% 0.00 in
07:25 68.3 °F 63.6 °F 30.06 in SE 3.0 mph 5.0 mph 85% 0.00 in
07:30 68.7 °F 63.7 °F 30.06 in SSE 2.0 mph 3.0 mph 84% 0.00 in
07:35 69.0 °F 64.0 °F 30.06 in SE 2.0 mph 3.0 mph 84% 0.00 in
07:40 69.3 °F 63.9 °F 30.07 in SE 2.0 mph 3.0 mph 83% 0.00 in
07:45 69.6 °F 64.2 °F 30.07 in South 3.0 mph 3.0 mph 83% 0.00 in
07:50 69.5 °F 64.5 °F 30.07 in SE 2.0 mph 3.0 mph 84% 0.00 in
07:55 69.5 °F 64.5 °F 30.07 in SE 4.0 mph 4.0 mph 84% 0.00 in
08:00 69.4 °F 64.0 °F 30.07 in SE 4.0 mph 6.0 mph 83% 0.00 in
08:05 69.8 °F 64.4 °F 30.07 in SE 6.0 mph 7.0 mph 83% 0.00 in
08:10 70.3 °F 64.6 °F 30.06 in SSE 4.0 mph 6.0 mph 82% 0.00 in
08:15 70.9 °F 65.1 °F 30.07 in SE 4.0 mph 5.0 mph 82% 0.00 in
08:20 71.5 °F 65.4 °F 30.07 in SSE 5.0 mph 7.0 mph 81% 0.00 in
08:25 72.1 °F 65.2 °F 30.06 in South 4.0 mph 6.0 mph 79% 0.00 in
08:30 72.6 °F 65.7 °F 30.06 in SSW 5.0 mph 7.0 mph 79% 0.00 in
08:35 72.8 °F 65.6 °F 30.06 in SSE 4.0 mph 6.0 mph 78% 0.00 in
08:40 73.1 °F 65.8 °F 30.06 in SE 7.0 mph 8.0 mph 78% 0.00 in
08:45 73.3 °F 65.7 °F 30.07 in South 4.0 mph 6.0 mph 77% 0.00 in
08:50 73.6 °F 65.6 °F 30.07 in SE 5.0 mph 6.0 mph 76% 0.00 in
08:55 74.0 °F 66.3 °F 30.07 in SSE 7.0 mph 7.0 mph 77% 0.00 in
09:00 74.4 °F 66.0 °F 30.07 in SSW 2.0 mph 7.0 mph 75% 0.00 in
09:05 74.8 °F 66.0 °F 30.07 in SE 5.0 mph 6.0 mph 74% 0.00 in
09:10 74.9 °F 65.7 °F 30.07 in South 3.0 mph 7.0 mph 73% 0.00 in
09:16 75.2 °F 65.6 °F 30.07 in SE 7.0 mph 8.0 mph 72% 0.00 in
09:21 75.5 °F 65.8 °F 30.07 in SSE 5.0 mph 7.0 mph 72% 0.00 in
09:26 75.8 °F 66.5 °F 30.07 in SE 5.0 mph 9.0 mph 73% 0.00 in
09:31 76.0 °F 66.3 °F 30.07 in SSE 4.0 mph 7.0 mph 72% 0.00 in
09:36 76.3 °F 65.0 °F 30.07 in SSE 2.0 mph 7.0 mph 68% 0.00 in
09:41 76.7 °F 64.9 °F 30.07 in South 4.0 mph 7.0 mph 67% 0.00 in
09:46 76.9 °F 66.4 °F 30.07 in SSW 3.0 mph 6.0 mph 70% 0.00 in
09:51 77.4 °F 66.0 °F 30.07 in South 3.0 mph 6.0 mph 68% 0.00 in
09:56 77.6 °F 66.6 °F 30.07 in SE 6.0 mph 7.0 mph 69% 0.00 in
10:01 77.5 °F 65.7 °F 30.07 in South 4.0 mph 6.0 mph 67% 0.00 in
10:06 77.6 °F 65.8 °F 30.07 in SSE 4.0 mph 8.0 mph 67% 0.00 in
10:11 77.9 °F 66.9 °F 30.07 in SE 4.0 mph 8.0 mph 69% 0.00 in
10:16 78.3 °F 67.3 °F 30.06 in South 4.0 mph 6.0 mph 69% 0.00 in
10:21 78.5 °F 66.6 °F 30.06 in SE 6.0 mph 6.0 mph 67% 0.00 in
10:26 78.8 °F 67.4 °F 30.06 in SW 3.0 mph 6.0 mph 68% 0.00 in
10:31 78.9 °F 66.2 °F 30.06 in South 4.0 mph 6.0 mph 65% 0.00 in
10:36 79.1 °F 65.9 °F 30.06 in SSW 4.0 mph 7.0 mph 64% 0.00 in
10:41 79.0 °F 67.1 °F 30.06 in SE 8.0 mph 9.0 mph 67% 0.00 in
10:46 79.2 °F 66.4 °F 30.05 in South 8.0 mph 8.0 mph 65% 0.00 in
10:51 79.6 °F 66.4 °F 30.05 in SSW 5.0 mph 7.0 mph 64% 0.00 in
10:56 79.9 °F 65.7 °F 30.05 in WSW 9.0 mph 9.0 mph 62% 0.00 in
11:01 79.6 °F 65.4 °F 30.05 in SW 2.0 mph 7.0 mph 62% 0.00 in
11:06 79.9 °F 65.7 °F 30.05 in SSW 3.0 mph 8.0 mph 62% 0.00 in
11:11 80.5 °F 66.8 °F 30.05 in South 3.0 mph 7.0 mph 63% 0.00 in
11:16 80.5 °F 66.3 °F 30.05 in SSE 5.0 mph 10.0 mph 62% 0.00 in
11:21 80.4 °F 65.3 °F 30.05 in SE 4.0 mph 7.0 mph 60% 0.00 in
11:26 80.6 °F 65.4 °F 30.05 in South 4.0 mph 9.0 mph 60% 0.00 in
11:31 80.6 °F 65.9 °F 30.05 in SSW 6.0 mph 8.0 mph 61% 0.00 in
11:36 80.7 °F 65.5 °F 30.05 in SSW 5.0 mph 9.0 mph 60% 0.00 in
11:41 80.5 °F 65.8 °F 30.04 in WSW 8.0 mph 9.0 mph 61% 0.00 in
11:46 80.8 °F 66.1 °F 30.04 in SE 11.0 mph 12.0 mph 61% 0.00 in
11:51 80.9 °F 64.8 °F 30.04 in South 5.0 mph 7.0 mph 58% 0.00 in
11:56 81.0 °F 64.8 °F 30.04 in South 6.0 mph 7.0 mph 58% 0.00 in
12:01 81.4 °F 64.2 °F 30.04 in SW 6.0 mph 9.0 mph 56% 0.00 in
12:06 80.8 °F 65.2 °F 30.03 in SSW 8.0 mph 9.0 mph 59% 0.00 in
12:11 81.1 °F 64.9 °F 30.03 in SSW 4.0 mph 9.0 mph 58% 0.00 in
12:16 81.4 °F 66.2 °F 30.03 in SW 6.0 mph 9.0 mph 60% 0.00 in
12:21 81.3 °F 63.1 °F 30.03 in SW 5.0 mph 9.0 mph 54% 0.00 in
12:26 81.9 °F 63.6 °F 30.03 in SSW 4.0 mph 8.0 mph 54% 0.00 in
12:31 81.9 °F 64.2 °F 30.03 in South 6.0 mph 8.0 mph 55% 0.00 in
12:36 82.3 °F 65.6 °F 30.03 in South 3.0 mph 6.0 mph 57% 0.00 in
12:41 82.3 °F 64.5 °F 30.03 in SSW 6.0 mph 8.0 mph 55% 0.00 in
12:47 81.4 °F 65.7 °F 30.03 in SW 5.0 mph 8.0 mph 59% 0.00 in
12:52 81.6 °F 63.9 °F 30.02 in SE 6.0 mph 9.0 mph 55% 0.00 in
12:57 81.9 °F 64.2 °F 30.03 in SSE 6.0 mph 10.0 mph 55% 0.00 in
13:02 82.2 °F 65.5 °F 30.02 in South 6.0 mph 8.0 mph 57% 0.00 in
13:07 82.4 °F 66.2 °F 30.02 in SE 7.0 mph 9.0 mph 58% 0.00 in
13:12 82.8 °F 63.9 °F 30.02 in SSE 8.0 mph 8.0 mph 53% 0.00 in
13:17 82.4 °F 64.6 °F 30.02 in SSW 6.0 mph 10.0 mph 55% 0.00 in
13:22 82.4 °F 65.7 °F 30.02 in SSW 8.0 mph 11.0 mph 57% 0.00 in
13:27 82.5 °F 65.2 °F 30.02 in SSW 7.0 mph 11.0 mph 56% 0.00 in
13:32 82.9 °F 64.6 °F 30.01 in SSE 7.0 mph 10.0 mph 54% 0.00 in
13:37 83.1 °F 66.3 °F 30.01 in SE 7.0 mph 16.0 mph 57% 0.00 in
13:42 82.9 °F 65.1 °F 30.01 in South 5.0 mph 11.0 mph 55% 0.00 in
13:47 83.0 °F 64.7 °F 30.01 in SE 8.0 mph 11.0 mph 54% 0.00 in
13:52 83.0 °F 64.7 °F 30.01 in SSW 5.0 mph 7.0 mph 54% 0.00 in
13:57 82.9 °F 64.6 °F 30.01 in SE 7.0 mph 13.0 mph 54% 0.00 in
14:02 83.0 °F 65.7 °F 30.01 in SSW 5.0 mph 7.0 mph 56% 0.00 in
14:07 83.3 °F 66.0 °F 30.00 in South 3.0 mph 8.0 mph 56% 0.00 in
14:12 82.9 °F 64.6 °F 30.00 in SSW 6.0 mph 6.0 mph 54% 0.00 in
14:18 83.0 °F 64.7 °F 30.00 in SE 7.0 mph 11.0 mph 54% 0.00 in
14:23 83.2 °F 64.3 °F 30.00 in SE 9.0 mph 13.0 mph 53% 0.00 in
14:28 83.3 °F 64.4 °F 29.99 in SSE 4.0 mph 9.0 mph 53% 0.00 in
14:33 83.1 °F 65.3 °F 30.00 in SSW 3.0 mph 8.0 mph 55% 0.00 in
14:38 83.1 °F 64.8 °F 29.99 in ESE 7.0 mph 9.0 mph 54% 0.00 in
14:43 83.6 °F 63.0 °F 29.99 in ESE 5.0 mph 11.0 mph 50% 0.00 in
14:49 83.9 °F 64.4 °F 29.99 in SW 5.0 mph 9.0 mph 52% 0.00 in
14:54 84.1 °F 65.1 °F 29.98 in SSW 6.0 mph 12.0 mph 53% 0.00 in
14:59 84.5 °F 66.1 °F 29.98 in SSE 7.0 mph 8.0 mph 54% 0.00 in
15:03 84.4 °F 66.5 °F 29.98 in SW 4.0 mph 7.0 mph 55% 0.00 in
15:08 84.4 °F 65.9 °F 29.98 in SSW 7.0 mph 9.0 mph 54% 0.00 in
15:14 84.5 °F 64.4 °F 29.98 in SSE 8.0 mph 15.0 mph 51% 0.00 in
15:19 84.3 °F 63.1 °F 29.97 in SW 2.0 mph 7.0 mph 49% 0.00 in
15:24 84.7 °F 64.0 °F 29.97 in SE 5.0 mph 9.0 mph 50% 0.00 in
15:29 84.7 °F 64.0 °F 29.97 in ESE 6.0 mph 11.0 mph 50% 0.00 in
15:34 84.8 °F 64.7 °F 29.97 in SE 5.0 mph 10.0 mph 51% 0.00 in
15:39 85.0 °F 64.3 °F 29.97 in South 8.0 mph 8.0 mph 50% 0.00 in
15:44 84.7 °F 64.6 °F 29.97 in WSW 4.0 mph 7.0 mph 51% 0.00 in
15:49 84.4 °F 62.6 °F 29.97 in SSE 1.0 mph 7.0 mph 48% 0.00 in
15:54 85.0 °F 63.7 °F 29.96 in SSE 9.0 mph 9.0 mph 49% 0.00 in
15:59 85.4 °F 64.7 °F 29.96 in WSW 5.0 mph 5.0 mph 50% 0.00 in
16:04 85.4 °F 62.9 °F 29.96 in WSW 3.0 mph 5.0 mph 47% 0.00 in
16:09 85.4 °F 64.7 °F 29.96 in ESE 6.0 mph 8.0 mph 50% 0.00 in
16:14 84.8 °F 63.5 °F 29.95 in SSE 3.0 mph 7.0 mph 49% 0.00 in
16:19 85.1 °F 63.8 °F 29.95 in ESE 6.0 mph 8.0 mph 49% 0.00 in
16:24 84.8 °F 64.1 °F 29.95 in ESE 8.0 mph 9.0 mph 50% 0.00 in
16:29 83.8 °F 62.6 °F 29.95 in SE 5.0 mph 8.0 mph 49% 0.00 in
16:34 84.1 °F 63.5 °F 29.95 in SE 8.0 mph 10.0 mph 50% 0.00 in
16:39 84.5 °F 63.3 °F 29.95 in SE 8.0 mph 10.0 mph 49% 0.00 in
16:44 84.9 °F 64.8 °F 29.94 in South 4.0 mph 8.0 mph 51% 0.00 in
16:49 85.5 °F 63.6 °F 29.94 in SSW 2.0 mph 8.0 mph 48% 0.00 in
16:54 85.4 °F 64.1 °F 29.94 in SSE 7.0 mph 9.0 mph 49% 0.00 in
16:59 84.9 °F 63.0 °F 29.94 in SE 5.0 mph 7.0 mph 48% 0.00 in
17:04 85.0 °F 62.5 °F 29.94 in SE 6.0 mph 9.0 mph 47% 0.00 in
17:09 85.0 °F 63.1 °F 29.94 in South 5.0 mph 11.0 mph 48% 0.00 in
17:14 85.2 °F 64.5 °F 29.94 in SSE 5.0 mph 8.0 mph 50% 0.00 in
17:19 85.7 °F 65.5 °F 29.94 in SW 4.0 mph 7.0 mph 51% 0.00 in
17:24 85.6 °F 64.8 °F 29.94 in SSW 2.0 mph 6.0 mph 50% 0.00 in
17:29 85.4 °F 63.5 °F 29.93 in South 4.0 mph 5.0 mph 48% 0.00 in
17:34 85.3 °F 63.4 °F 29.93 in SSW 4.0 mph 7.0 mph 48% 0.00 in
17:39 85.3 °F 63.4 °F 29.93 in SE 4.0 mph 10.0 mph 48% 0.00 in
17:44 85.5 °F 63.6 °F 29.93 in South 3.0 mph 6.0 mph 48% 0.00 in
17:49 85.4 °F 62.9 °F 29.92 in South 4.0 mph 9.0 mph 47% 0.00 in
17:54 85.6 °F 64.8 °F 29.92 in SSW 4.0 mph 6.0 mph 50% 0.00 in
17:59 85.2 °F 63.3 °F 29.92 in SW 3.0 mph 6.0 mph 48% 0.00 in
18:04 84.6 °F 62.2 °F 29.92 in SE 2.0 mph 5.0 mph 47% 0.00 in
18:09 84.5 °F 62.7 °F 29.92 in SSE 4.0 mph 6.0 mph 48% 0.00 in
18:14 84.8 °F 64.1 °F 29.92 in SSW 2.0 mph 4.0 mph 50% 0.00 in
18:19 85.0 °F 63.1 °F 29.92 in Calm   4.0 mph 48% 0.00 in
18:24 84.5 °F 63.3 °F 29.92 in ESE 4.0 mph 6.0 mph 49% 0.00 in
18:29 84.5 °F 63.8 °F 29.91 in SE 7.0 mph 7.0 mph 50% 0.00 in
18:34 84.2 °F 63.6 °F 29.92 in ESE 4.0 mph 6.0 mph 50% 0.00 in
18:39 84.3 °F 63.1 °F 29.91 in SE 2.0 mph 5.0 mph 49% 0.00 in
18:44 84.7 °F 63.5 °F 29.91 in SSE 6.0 mph 6.0 mph 49% 0.00 in
18:49 84.7 °F 62.3 °F 29.91 in SSE 7.0 mph 7.0 mph 47% 0.00 in
18:54 84.9 °F 63.0 °F 29.91 in South 2.0 mph 6.0 mph 48% 0.00 in
18:59 85.2 °F 63.9 °F 29.91 in SE 1.0 mph 3.0 mph 49% 0.00 in
19:04 85.4 °F 63.5 °F 29.91 in SSW 5.0 mph 5.0 mph 48% 0.00 in
19:09 85.3 °F 62.8 °F 29.91 in SW 3.0 mph 4.0 mph 47% 0.00 in
19:14 85.2 °F 63.3 °F 29.91 in South 4.0 mph 5.0 mph 48% 0.00 in
19:19 85.2 °F 63.9 °F 29.92 in SSW 3.0 mph 4.0 mph 49% 0.00 in
19:25 85.2 °F 63.9 °F 29.92 in SSW 2.0 mph 3.0 mph 49% 0.00 in
19:30 85.3 °F 64.0 °F 29.91 in SE 2.0 mph 3.0 mph 49% 0.00 in
19:35 84.9 °F 64.2 °F 29.91 in South 4.0 mph 7.0 mph 50% 0.00 in
19:40 84.4 °F 63.8 °F 29.91 in South 4.0 mph 5.0 mph 50% 0.00 in
19:45 84.3 °F 62.5 °F 29.91 in South 5.0 mph 6.0 mph 48% 0.00 in
19:50 84.2 °F 62.4 °F 29.91 in SW 3.0 mph 5.0 mph 48% 0.00 in
19:55 84.1 °F 62.9 °F 29.91 in SSW 2.0 mph 4.0 mph 49% 0.00 in
20:00 83.9 °F 63.3 °F 29.91 in South 1.0 mph 3.0 mph 50% 0.00 in
20:05 83.8 °F 62.6 °F 29.92 in SW 2.0 mph 3.0 mph 49% 0.00 in
20:10 83.6 °F 63.0 °F 29.91 in SSE 2.0 mph 2.0 mph 50% 0.00 in
20:15 83.0 °F 63.6 °F 29.91 in SSE 2.0 mph 3.0 mph 52% 0.00 in
20:20 82.5 °F 63.7 °F 29.91 in SSE 1.0 mph 2.0 mph 53% 0.00 in
20:25 82.0 °F 63.2 °F 29.91 in SSE 1.0 mph 2.0 mph 53% 0.00 in
20:30 81.4 °F 63.7 °F 29.91 in SSE 2.0 mph 2.0 mph 55% 0.00 in
20:35 80.6 °F 63.5 °F 29.91 in SSE 1.0 mph 2.0 mph 56% 0.00 in
20:40 79.8 °F 63.7 °F 29.91 in SSE 1.0 mph 1.0 mph 58% 0.00 in
20:45 79.3 °F 63.3 °F 29.91 in SSE 1.0 mph 2.0 mph 58% 0.00 in
20:50 78.8 °F 63.3 °F 29.91 in SSE 1.0 mph 1.0 mph 59% 0.00 in
20:55 78.5 °F 63.0 °F 29.91 in SE 1.0 mph 1.0 mph 59% 0.00 in
21:00 78.1 °F 63.6 °F 29.91 in SE 1.0 mph 1.0 mph 61% 0.00 in
21:05 77.4 °F 63.4 °F 29.91 in SE 1.0 mph 1.0 mph 62% 0.00 in
21:10 76.8 °F 62.8 °F 29.91 in SE 1.0 mph 1.0 mph 62% 0.00 in
21:15 76.3 °F 62.8 °F 29.91 in SE 1.0 mph 1.0 mph 63% 0.00 in
21:20 76.0 °F 63.0 °F 29.91 in SE 1.0 mph 2.0 mph 64% 0.00 in
21:25 75.8 °F 62.8 °F 29.91 in SSE 1.0 mph 1.0 mph 64% 0.00 in
21:30 75.6 °F 63.0 °F 29.91 in SSE 1.0 mph 1.0 mph 65% 0.00 in
21:35 75.1 °F 62.5 °F 29.91 in SSE 1.0 mph 1.0 mph 65% 0.00 in
21:40 74.8 °F 62.7 °F 29.91 in Calm   1.0 mph 66% 0.00 in
21:45 74.7 °F 62.6 °F 29.92 in SSE 1.0 mph 2.0 mph 66% 0.00 in
21:50 74.6 °F 62.5 °F 29.91 in SSE 2.0 mph 2.0 mph 66% 0.00 in
21:55 74.5 °F 62.8 °F 29.91 in SE 2.0 mph 2.0 mph 67% 0.00 in
22:00 74.2 °F 62.5 °F 29.92 in SE 1.0 mph 1.0 mph 67% 0.00 in
22:05 74.0 °F 62.4 °F 29.92 in SSE 1.0 mph 1.0 mph 67% 0.00 in
22:10 73.9 °F 62.3 °F 29.92 in SSE 2.0 mph 2.0 mph 67% 0.00 in
22:15 74.0 °F 61.9 °F 29.92 in SSW 1.0 mph 2.0 mph 66% 0.00 in
22:21 73.9 °F 62.3 °F 29.92 in Calm   2.0 mph 67% 0.00 in
22:26 73.4 °F 62.2 °F 29.93 in Calm   1.0 mph 68% 0.00 in
22:31 72.8 °F 62.0 °F 29.93 in Calm   1.0 mph 69% 0.00 in
22:36 72.4 °F 61.7 °F 29.93 in Calm   1.0 mph 69% 0.00 in
22:41 72.2 °F 61.9 °F 29.93 in SE 1.0 mph 1.0 mph 70% 0.00 in
22:46 72.1 °F 61.8 °F 29.93 in Calm     70% 0.00 in
22:51 71.6 °F 61.7 °F 29.93 in Calm     71% 0.00 in
22:56 71.5 °F 61.6 °F 29.93 in SE 1.0 mph 2.0 mph 71% 0.00 in
23:01 71.8 °F 61.9 °F 29.93 in SE 1.0 mph 2.0 mph 71% 0.00 in
23:06 72.0 °F 61.7 °F 29.93 in SSE 1.0 mph 2.0 mph 70% 0.00 in
23:11 72.3 °F 61.6 °F 29.93 in SSE 2.0 mph 2.0 mph 69% 0.00 in
23:16 72.5 °F 61.8 °F 29.93 in SE 2.0 mph 2.0 mph 69% 0.00 in
23:21 72.6 °F 61.9 °F 29.93 in SSE 2.0 mph 3.0 mph 69% 0.00 in
23:26 72.3 °F 62.0 °F 29.93 in SE 2.0 mph 3.0 mph 70% 0.00 in
23:31 72.2 °F 61.9 °F 29.93 in SE 1.0 mph 2.0 mph 70% 0.00 in
23:36 72.2 °F 61.9 °F 29.93 in SE 1.0 mph 1.0 mph 70% 0.00 in
23:41 72.1 °F 61.8 °F 29.93 in Calm   1.0 mph 70% 0.00 in
23:46 71.7 °F 61.8 °F 29.93 in Calm   1.0 mph 71% 0.00 in
23:51 71.2 °F 61.7 °F 29.93 in Calm   1.0 mph 72% 0.00 in
23:56 71.1 °F 61.6 °F 29.93 in Calm   1.0 mph 72% 0.00 in
Compliments of Weather Underground